Time;durP1;ratioP1;P1;durP2;ratioP2;P2;SDS_P1;SDS_P2;PMS_P1;PMS_P2;Temp;Humidity;BMP_temperature;BMP_pressure;BME280_temperature;BME280_humidity;BME280_pressure;Samples;Min_cycle;Max_cycle;Signal;HPM_P1;HPM_P2
2022/11/09 00:02:07;;;;;;;0.03;0.03;;;12.20;99.90;;;;;;5044619;28;20178;-87
2022/11/09 00:04:32;;;;;;;0.10;0.10;;;12.20;99.90;;;;;;5044009;28;20638;-86
2022/11/09 00:06:58;;;;;;;0.10;0.10;;;12.20;99.90;;;;;;5060720;28;20308;-87
2022/11/09 00:09:23;;;;;;;0.10;0.10;;;12.10;99.90;;;;;;5044664;28;20217;-87
2022/11/09 00:11:49;;;;;;;0.10;0.10;;;11.90;99.90;;;;;;5043710;28;20190;-87
2022/11/09 00:14:16;;;;;;;0.10;0.10;;;11.70;99.90;;;;;;5044209;28;20319;-86
2022/11/09 00:16:42;;;;;;;0.10;0.10;;;11.70;99.90;;;;;;5043258;28;20217;-87
2022/11/09 00:19:07;;;;;;;0.10;0.10;;;11.50;99.90;;;;;;5043382;28;20263;-87
2022/11/09 00:21:33;;;;;;;0.10;0.10;;;11.40;99.90;;;;;;5043593;28;20189;-86
2022/11/09 00:23:58;;;;;;;0.00;0.00;;;11.40;99.90;;;;;;5043181;28;20263;-86
2022/11/09 00:26:25;;;;;;;0.10;0.10;;;11.30;99.90;;;;;;5043543;28;20190;-85
2022/11/09 00:28:50;;;;;;;0.10;0.10;;;11.30;99.90;;;;;;5044136;28;20298;-87
2022/11/09 00:31:21;;;;;;;0.10;0.10;;;11.20;99.90;;;;;;5042800;28;20670;-87
2022/11/09 00:33:48;;;;;;;0.10;0.10;;;11.20;99.90;;;;;;5043633;28;20189;-86
2022/11/09 00:36:14;;;;;;;0.10;0.10;;;11.30;99.90;;;;;;5043352;28;20202;-86
2022/11/09 00:38:39;;;;;;;0.10;0.10;;;11.40;99.90;;;;;;5043702;28;20204;-87
2022/11/09 00:41:07;;;;;;;0.10;0.10;;;11.30;99.90;;;;;;5044608;28;20236;-87
2022/11/09 00:43:32;;;;;;;0.10;0.10;;;11.40;99.90;;;;;;5043611;28;20181;-87
2022/11/09 00:45:58;;;;;;;0.00;0.00;;;11.40;99.90;;;;;;5042558;28;20195;-87
2022/11/09 00:48:24;;;;;;;0.10;0.10;;;11.50;99.90;;;;;;5044262;28;20205;-87
2022/11/09 00:50:51;;;;;;;0.10;0.10;;;11.50;99.90;;;;;;5044581;28;20235;-87
2022/11/09 00:53:17;;;;;;;0.10;0.10;;;11.40;99.90;;;;;;5059783;28;20186;-86
2022/11/09 00:55:51;;;;;;;0.10;0.10;;;11.30;99.90;;;;;;5043040;28;20183;-86
2022/11/09 00:58:17;;;;;;;0.10;0.10;;;11.30;99.90;;;;;;5042775;28;20740;-88
2022/11/09 01:00:42;;;;;;;0.10;0.10;;;11.20;99.90;;;;;;5042903;28;20178;-87
2022/11/09 01:03:08;;;;;;;0.10;0.10;;;11.10;99.90;;;;;;5060679;28;20227;-87
2022/11/09 01:05:38;;;;;;;0.10;0.10;;;11.10;99.90;;;;;;5044784;28;20545;-86
2022/11/09 01:08:04;;;;;;;0.10;0.10;;;11.10;99.90;;;;;;5043750;28;20212;-87
2022/11/09 01:10:29;;;;;;;0.10;0.10;;;11.30;99.90;;;;;;5044057;28;20205;-87
2022/11/09 01:12:56;;;;;;;0.10;0.10;;;11.40;99.90;;;;;;5043936;28;20182;-87
2022/11/09 01:15:21;;;;;;;0.10;0.10;;;11.30;99.90;;;;;;5059761;28;20170;-86
2022/11/09 01:17:47;;;;;;;0.10;0.10;;;11.50;99.90;;;;;;5042887;28;20540;-86
2022/11/09 01:20:14;;;;;;;0.10;0.10;;;11.50;99.90;;;;;;5046772;28;20258;-87
2022/11/09 01:22:40;;;;;;;0.10;0.10;;;11.50;99.90;;;;;;5047343;28;20184;-87
2022/11/09 01:25:06;;;;;;;0.10;0.10;;;11.50;99.90;;;;;;5047415;28;20564;-86
2022/11/09 01:27:32;;;;;;;0.00;0.00;;;11.60;99.90;;;;;;5047510;28;20218;-86
2022/11/09 01:29:57;;;;;;;0.10;0.10;;;11.60;99.90;;;;;;5063715;28;20209;-85
2022/11/09 01:32:23;;;;;;;0.03;0.03;;;11.70;99.90;;;;;;5047035;28;20292;-86
2022/11/09 01:34:48;;;;;;;0.07;0.07;;;11.80;99.90;;;;;;5047381;28;20662;-87
2022/11/09 01:37:14;;;;;;;0.10;0.10;;;11.90;99.90;;;;;;5046626;28;20220;-86
2022/11/09 01:39:39;;;;;;;0.03;0.03;;;12.00;99.90;;;;;;5046492;28;20225;-87
2022/11/09 01:42:05;;;;;;;0.10;0.10;;;11.90;99.90;;;;;;5046347;28;20223;-87
2022/11/09 01:44:32;;;;;;;0.03;0.03;;;11.90;99.90;;;;;;5046034;28;20217;-86
2022/11/09 01:47:03;;;;;;;0.07;0.07;;;12.00;99.90;;;;;;5045060;28;20192;-87
2022/11/09 01:49:46;;;;;;;0.10;0.10;;;11.90;99.90;;;;;;5061563;28;20217;-86
2022/11/09 01:52:40;;;;;;;0.10;0.10;;;12.10;99.90;;;;;;5046376;28;20190;-87
2022/11/09 01:55:14;;;;;;;0.10;0.10;;;12.20;99.90;;;;;;5044477;28;20193;-86
2022/11/09 01:58:00;;;;;;;0.10;0.10;;;12.10;99.90;;;;;;5061765;28;20201;-87
2022/11/09 02:00:26;;;;;;;0.10;0.10;;;12.20;99.90;;;;;;5052744;28;20182;-86
2022/11/09 02:02:59;;;;;;;0.10;0.10;;;12.10;99.90;;;;;;5046698;28;20665;-87
2022/11/09 02:05:29;;;;;;;0.10;0.10;;;12.20;99.90;;;;;;5046731;28;20194;-85
2022/11/09 02:07:56;;;;;;;0.10;0.10;;;12.20;99.90;;;;;;5062319;28;20186;-87
2022/11/09 02:10:27;;;;;;;0.10;0.10;;;12.00;99.90;;;;;;5061803;28;20194;-86
2022/11/09 02:12:53;;;;;;;0.10;0.10;;;11.90;99.90;;;;;;5046501;28;20178;-87
2022/11/09 02:15:20;;;;;;;0.10;0.10;;;11.80;99.90;;;;;;5046694;28;20646;-85
2022/11/09 02:17:50;;;;;;;0.10;0.10;;;11.60;99.90;;;;;;5046037;28;20213;-87
2022/11/09 02:20:16;;;;;;;0.10;0.10;;;11.70;99.90;;;;;;5045252;28;20233;-86
2022/11/09 02:22:42;;;;;;;0.10;0.10;;;11.80;99.90;;;;;;5047010;28;20213;-87
2022/11/09 02:25:09;;;;;;;0.10;0.10;;;11.90;99.90;;;;;;5045510;28;20220;-87
2022/11/09 02:27:35;;;;;;;0.10;0.10;;;11.80;99.90;;;;;;5044651;28;20232;-86
2022/11/09 02:30:03;;;;;;;0.10;0.10;;;11.80;99.90;;;;;;5045270;28;20208;-87
2022/11/09 02:32:29;;;;;;;0.10;0.10;;;11.80;99.90;;;;;;5052947;28;20565;-87
2022/11/09 02:34:55;;;;;;;0.10;0.10;;;11.80;99.90;;;;;;5045317;28;21075;-87
2022/11/09 02:37:47;;;;;;;0.10;0.10;;;11.80;99.90;;;;;;5061464;28;20213;-86
2022/11/09 02:40:16;;;;;;;0.10;0.10;;;11.90;99.90;;;;;;5045222;28;20298;-87
2022/11/09 02:42:42;;;;;;;0.10;0.10;;;11.80;99.90;;;;;;5052947;28;20184;-87
2022/11/09 02:45:08;;;;;;;0.00;0.00;;;11.80;99.90;;;;;;5046695;28;20245;-87
2022/11/09 02:47:34;;;;;;;0.10;0.10;;;11.80;99.90;;;;;;5044337;28;20221;-86
2022/11/09 02:49:59;;;;;;;0.00;0.00;;;11.80;99.90;;;;;;5046638;28;20251;-86
2022/11/09 02:52:25;;;;;;;0.10;0.10;;;11.70;99.90;;;;;;5045216;28;20278;-86
2022/11/09 02:54:50;;;;;;;0.10;0.10;;;11.70;99.90;;;;;;5046102;28;20189;-87
2022/11/09 02:57:16;;;;;;;0.10;0.10;;;11.80;99.90;;;;;;5044811;28;20236;-86
2022/11/09 02:59:41;;;;;;;0.00;0.00;;;11.80;99.90;;;;;;5044827;28;20225;-87
2022/11/09 03:02:07;;;;;;;0.10;0.10;;;11.80;99.90;;;;;;5045708;28;20189;-86
2022/11/09 03:04:32;;;;;;;0.10;0.10;;;11.80;99.90;;;;;;5044403;28;20184;-87
2022/11/09 03:06:58;;;;;;;0.10;0.10;;;11.90;99.90;;;;;;5060659;28;20683;-85
2022/11/09 03:09:23;;;;;;;0.10;0.10;;;12.00;99.90;;;;;;5044268;28;20223;-87
2022/11/09 03:11:49;;;;;;;0.10;0.10;;;12.10;99.90;;;;;;5045188;28;20276;-86
2022/11/09 03:14:15;;;;;;;0.10;0.10;;;12.10;99.90;;;;;;5043667;28;20182;-87
2022/11/09 03:16:41;;;;;;;0.10;0.10;;;12.20;99.90;;;;;;5044105;28;20264;-87
2022/11/09 03:19:06;;;;;;;0.10;0.10;;;12.20;99.90;;;;;;5044179;28;20206;-87
2022/11/09 03:21:32;;;;;;;0.00;0.00;;;12.20;99.90;;;;;;5044008;28;20184;-86
2022/11/09 03:23:57;;;;;;;0.10;0.10;;;12.30;99.90;;;;;;5044028;28;20190;-86
2022/11/09 03:26:23;;;;;;;0.10;0.10;;;12.30;99.90;;;;;;5045344;28;20280;-87
2022/11/09 03:28:49;;;;;;;0.07;0.07;;;12.20;99.90;;;;;;5044055;28;20212;-86
2022/11/09 03:31:14;;;;;;;0.00;0.00;;;12.10;99.90;;;;;;5044866;28;20646;-87
2022/11/09 03:33:40;;;;;;;0.10;0.10;;;12.00;99.90;;;;;;5043688;28;20198;-87
2022/11/09 03:36:06;;;;;;;0.10;0.10;;;12.00;99.90;;;;;;5043725;28;20240;-87
2022/11/09 03:38:31;;;;;;;0.10;0.10;;;12.10;99.90;;;;;;5044324;28;20271;-86
2022/11/09 03:41:00;;;;;;;0.00;0.00;;;12.20;99.90;;;;;;5044658;28;20205;-86
2022/11/09 03:43:29;;;;;;;0.03;0.03;;;12.30;99.90;;;;;;5061337;28;20646;-86
2022/11/09 03:45:55;;;;;;;0.10;0.10;;;12.40;99.90;;;;;;5061464;28;20584;-86
2022/11/09 03:48:21;;;;;;;0.10;0.10;;;12.40;99.90;;;;;;5044136;28;20209;-87
2022/11/09 03:50:46;;;;;;;0.10;0.10;;;12.50;99.90;;;;;;5061613;28;20526;-86
2022/11/09 03:53:12;;;;;;;0.10;0.10;;;12.60;99.90;;;;;;5044396;28;20189;-87
2022/11/09 03:55:39;;;;;;;0.10;0.10;;;12.60;99.90;;;;;;5045909;28;20174;-87
2022/11/09 03:58:05;;;;;;;0.10;0.10;;;12.70;99.90;;;;;;5044444;28;20674;-87
2022/11/09 04:00:31;;;;;;;0.10;0.10;;;12.70;99.90;;;;;;5060993;28;20658;-86
2022/11/09 04:02:57;;;;;;;0.10;0.10;;;12.70;99.90;;;;;;5043692;28;20195;-85
2022/11/09 04:05:23;;;;;;;0.10;0.10;;;12.80;99.90;;;;;;5045442;28;20182;-87
2022/11/09 04:07:52;;;;;;;0.10;0.10;;;12.80;99.90;;;;;;5043284;28;20217;-86
2022/11/09 04:10:18;;;;;;;0.10;0.10;;;12.80;99.90;;;;;;5043322;28;20240;-87
2022/11/09 04:12:44;;;;;;;0.10;0.10;;;12.90;99.90;;;;;;5045616;28;20263;-86
2022/11/09 04:15:10;;;;;;;0.10;0.10;;;12.90;99.90;;;;;;5043842;28;20642;-87
2022/11/09 04:17:36;;;;;;;0.10;0.10;;;12.90;99.90;;;;;;5043397;28;20288;-86
2022/11/09 04:20:01;;;;;;;0.03;0.03;;;12.90;99.90;;;;;;5043676;28;20217;-87
2022/11/09 04:22:27;;;;;;;0.10;0.10;;;12.90;99.90;;;;;;5045523;28;20197;-87
2022/11/09 04:24:52;;;;;;;0.10;0.10;;;12.90;99.90;;;;;;5044575;28;20261;-87
2022/11/09 04:27:18;;;;;;;0.10;0.10;;;12.90;99.90;;;;;;5042904;28;20557;-87
2022/11/09 04:29:44;;;;;;;0.10;0.10;;;13.00;99.90;;;;;;5059937;28;20205;-87
2022/11/09 04:32:09;;;;;;;0.10;0.10;;;13.00;99.90;;;;;;5041824;28;20196;-87
2022/11/09 04:34:35;;;;;;;0.10;0.10;;;13.10;99.90;;;;;;5043514;28;20185;-86
2022/11/09 04:37:00;;;;;;;0.10;0.10;;;13.10;99.90;;;;;;5042992;28;20261;-86
2022/11/09 04:39:26;;;;;;;0.10;0.10;;;13.10;99.90;;;;;;5043811;28;20698;-87
2022/11/09 04:41:51;;;;;;;0.00;0.00;;;13.10;99.90;;;;;;5044029;28;20654;-86
2022/11/09 04:44:17;;;;;;;0.10;0.10;;;13.10;99.90;;;;;;5060866;28;20205;-86
2022/11/09 04:46:42;;;;;;;0.10;0.10;;;13.10;99.90;;;;;;5043938;28;20677;-85
2022/11/09 04:49:08;;;;;;;0.10;0.10;;;13.10;99.90;;;;;;5043774;28;20202;-86
2022/11/09 04:51:34;;;;;;;0.10;0.10;;;13.10;99.90;;;;;;5039537;28;20193;-87
2022/11/09 04:53:59;;;;;;;0.10;0.10;;;13.20;99.90;;;;;;5041270;28;20642;-86
2022/11/09 04:56:26;;;;;;;0.10;0.10;;;13.20;99.90;;;;;;5046369;28;20208;-87
2022/11/09 04:58:51;;;;;;;0.10;0.10;;;13.10;99.90;;;;;;5046869;28;20216;-86
2022/11/09 05:01:17;;;;;;;0.10;0.10;;;13.10;99.90;;;;;;5046730;28;20758;-87
2022/11/09 05:03:42;;;;;;;0.10;0.10;;;13.20;99.90;;;;;;5062907;28;20578;-87
2022/11/09 05:08:53;;;;;;;0.10;0.10;;;13.10;99.90;;;;;;5047848;28;20284;-87
2022/11/09 05:11:19;;;;;;;0.10;0.10;;;13.10;99.90;;;;;;5063273;28;20185;-87
2022/11/09 05:13:45;;;;;;;0.10;0.10;;;13.20;99.90;;;;;;5047628;28;20192;-87
2022/11/09 05:16:10;;;;;;;0.10;0.10;;;13.20;99.90;;;;;;5047233;28;20209;-87
2022/11/09 05:18:36;;;;;;;0.10;0.10;;;13.20;99.90;;;;;;5047014;28;20293;-86
2022/11/09 05:21:02;;;;;;;0.10;0.10;;;13.10;99.90;;;;;;5047101;28;20190;-87
2022/11/09 05:26:11;;;;;;;0.10;0.10;;;13.10;99.90;;;;;;5046582;28;20259;-88
2022/11/09 05:28:37;;;;;;;0.10;0.10;;;13.10;99.90;;;;;;5062691;28;21767;-87
2022/11/09 05:31:03;;;;;;;0.10;0.10;;;13.10;99.90;;;;;;5045840;28;20225;-87
2022/11/09 05:33:29;;;;;;;0.10;0.10;;;13.10;99.90;;;;;;5047367;28;20196;-87
2022/11/09 05:35:55;;;;;;;0.10;0.10;;;13.10;99.90;;;;;;5045511;28;20182;-87
2022/11/09 05:38:21;;;;;;;0.10;0.10;;;13.10;99.90;;;;;;5047048;28;20328;-87
2022/11/09 05:40:50;;;;;;;0.10;0.10;;;13.10;99.90;;;;;;5045937;28;20201;-86
2022/11/09 05:43:16;;;;;;;0.10;0.10;;;13.10;99.90;;;;;;5047729;28;20600;-86
2022/11/09 05:45:43;;;;;;;0.10;0.10;;;13.10;99.90;;;;;;5061794;28;20622;-85
2022/11/09 05:48:10;;;;;;;0.03;0.03;;;13.10;99.90;;;;;;5044740;28;20186;-86
2022/11/09 05:50:36;;;;;;;0.10;0.10;;;13.10;99.90;;;;;;5045646;28;20601;-85
2022/11/09 05:53:02;;;;;;;0.10;0.10;;;13.20;99.90;;;;;;5061804;28;20190;-87
2022/11/09 05:55:27;;;;;;;0.10;0.10;;;13.10;99.90;;;;;;5045819;28;20662;-86
2022/11/09 05:57:54;;;;;;;0.10;0.10;;;13.10;99.90;;;;;;5045716;28;20210;-86
2022/11/09 06:00:20;;;;;;;0.00;0.00;;;13.10;99.90;;;;;;5045573;28;20206;-87
2022/11/09 06:02:45;;;;;;;0.10;0.10;;;13.10;99.90;;;;;;5047358;28;20192;-86
2022/11/09 06:05:11;;;;;;;0.10;0.10;;;13.20;99.90;;;;;;5060409;28;20181;-87
2022/11/09 06:07:36;;;;;;;0.10;0.10;;;13.10;99.90;;;;;;5044852;28;20243;-86
2022/11/09 06:10:03;;;;;;;0.10;0.10;;;13.10;99.90;;;;;;5045866;28;20213;-85
2022/11/09 06:12:29;;;;;;;0.10;0.10;;;13.10;99.90;;;;;;5044826;28;22039;-86
2022/11/09 06:14:54;;;;;;;0.03;0.03;;;13.10;99.90;;;;;;5045136;28;20232;-86
2022/11/09 06:17:20;;;;;;;0.10;0.10;;;13.20;99.90;;;;;;5045611;28;20209;-85
2022/11/09 06:19:45;;;;;;;0.10;0.10;;;13.20;99.90;;;;;;5044651;28;20291;-84
2022/11/09 06:22:11;;;;;;;0.10;0.10;;;13.20;99.90;;;;;;5044622;28;20185;-83
2022/11/09 06:24:37;;;;;;;0.10;0.10;;;13.20;99.90;;;;;;5043572;28;20178;-83
2022/11/09 06:27:02;;;;;;;0.10;0.10;;;13.20;99.90;;;;;;5046131;28;20296;-83
2022/11/09 06:29:28;;;;;;;0.10;0.10;;;13.20;99.90;;;;;;5045330;28;20613;-83
2022/11/09 06:31:54;;;;;;;0.10;0.10;;;13.20;99.90;;;;;;5054486;28;20191;-83
2022/11/09 06:34:19;;;;;;;0.10;0.10;;;13.30;99.90;;;;;;5064100;28;20191;-83
2022/11/09 06:36:45;;;;;;;0.10;0.10;;;13.20;99.90;;;;;;5046581;28;20577;-83
2022/11/09 06:39:11;;;;;;;0.10;0.10;;;13.20;99.90;;;;;;5046724;28;20571;-82
2022/11/09 06:41:36;;;;;;;0.10;0.10;;;13.20;99.90;;;;;;5048176;28;20186;-83
2022/11/09 06:44:04;;;;;;;0.10;0.10;;;13.30;99.90;;;;;;5045800;28;20186;-83
2022/11/09 06:46:30;;;;;;;0.10;0.10;;;13.20;99.90;;;;;;5044858;28;20196;-83
2022/11/09 06:48:56;;;;;;;0.10;0.10;;;13.20;99.90;;;;;;5046350;28;20210;-82
2022/11/09 06:51:22;;;;;;;0.10;0.10;;;13.30;99.90;;;;;;5044360;28;20699;-84
2022/11/09 06:53:47;;;;;;;0.10;0.10;;;13.30;99.90;;;;;;5044889;28;20220;-83
2022/11/09 06:56:13;;;;;;;0.10;0.10;;;13.30;99.90;;;;;;5044689;28;20199;-85
2022/11/09 06:58:38;;;;;;;0.10;0.10;;;13.30;99.90;;;;;;5042328;28;20202;-85
2022/11/09 07:01:09;;;;;;;0.10;0.10;;;13.30;99.90;;;;;;5043040;28;20191;-84
2022/11/09 07:03:36;;;;;;;0.10;0.10;;;13.30;99.90;;;;;;5035933;28;20186;-85
2022/11/09 07:06:07;;;;;;;0.10;0.10;;;13.40;99.90;;;;;;5043828;28;20205;-85
2022/11/09 07:08:34;;;;;;;0.00;0.00;;;13.40;99.90;;;;;;5042801;28;20259;-84
2022/11/09 07:11:12;;;;;;;0.10;0.10;;;13.40;99.90;;;;;;5057212;28;20186;-83
2022/11/09 07:13:38;;;;;;;0.10;0.10;;;13.40;99.90;;;;;;5047427;28;20254;-84
2022/11/09 07:16:05;;;;;;;0.10;0.10;;;13.40;99.90;;;;;;5052014;28;20225;-83
2022/11/09 07:18:31;;;;;;;0.10;0.10;;;13.50;99.90;;;;;;5053420;28;20205;-84
2022/11/09 07:20:57;;;;;;;0.10;0.10;;;13.50;99.90;;;;;;5051535;28;20210;-85
2022/11/09 07:23:22;;;;;;;0.10;0.10;;;13.50;99.90;;;;;;5053393;28;20177;-85
2022/11/09 07:25:48;;;;;;;0.10;0.10;;;13.50;99.90;;;;;;5050769;28;20225;-85
2022/11/09 07:28:13;;;;;;;0.10;0.10;;;13.50;99.90;;;;;;5050616;28;20190;-85
2022/11/09 07:30:39;;;;;;;0.10;0.10;;;13.50;99.90;;;;;;5052831;28;20196;-85
2022/11/09 07:33:14;;;;;;;0.07;0.07;;;13.50;99.90;;;;;;5059879;28;20295;-85
2022/11/09 07:35:40;;;;;;;0.10;0.10;;;13.50;99.90;;;;;;5052568;28;20232;-85
2022/11/09 07:38:06;;;;;;;0.00;0.00;;;13.60;99.90;;;;;;5050990;28;20681;-85
2022/11/09 07:40:31;;;;;;;0.10;0.10;;;13.60;99.90;;;;;;5059374;28;20191;-85
2022/11/09 07:43:01;;;;;;;0.10;0.10;;;13.60;99.90;;;;;;5070106;28;20627;-85
2022/11/09 07:45:29;;;;;;;0.10;0.10;;;13.60;99.90;;;;;;5059849;28;20212;-84
2022/11/09 07:47:56;;;;;;;0.10;0.10;;;13.60;99.90;;;;;;5061202;28;20186;-85
2022/11/09 07:50:22;;;;;;;0.10;0.10;;;13.50;99.90;;;;;;5050298;28;20209;-85
2022/11/09 07:52:47;;;;;;;0.03;0.03;;;13.60;99.90;;;;;;5050666;28;20199;-85
2022/11/09 07:55:13;;;;;;;0.10;0.10;;;13.60;99.90;;;;;;5048430;28;20655;-85
2022/11/09 07:57:38;;;;;;;0.10;0.10;;;13.60;99.90;;;;;;5051361;28;20297;-86
2022/11/09 08:00:04;;;;;;;0.10;0.10;;;13.60;99.90;;;;;;5063481;28;20233;-85
2022/11/09 08:02:30;;;;;;;0.10;0.10;;;13.60;99.90;;;;;;5059394;28;20180;-85
2022/11/09 08:04:55;;;;;;;0.03;0.03;;;13.60;99.90;;;;;;5048511;28;20186;-85
2022/11/09 08:07:22;;;;;;;0.10;0.10;;;13.60;99.90;;;;;;5052234;28;20567;-85
2022/11/09 08:09:48;;;;;;;0.10;0.10;;;13.60;99.90;;;;;;5050966;28;20221;-86
2022/11/09 08:12:13;;;;;;;0.10;0.10;;;13.60;99.90;;;;;;5054657;28;20183;-86
2022/11/09 08:14:39;;;;;;;0.07;0.07;;;13.70;99.90;;;;;;5050104;28;20585;-86
2022/11/09 08:17:04;;;;;;;0.10;0.10;;;13.70;99.90;;;;;;5057547;28;20198;-85
2022/11/09 08:19:30;;;;;;;0.10;0.10;;;13.70;99.90;;;;;;5061654;28;20198;-85
2022/11/09 08:21:56;;;;;;;0.10;0.10;;;13.70;99.90;;;;;;5063890;28;20167;-86
2022/11/09 08:24:22;;;;;;;0.10;0.10;;;13.70;99.90;;;;;;5069126;28;20174;-86
2022/11/09 08:26:47;;;;;;;0.10;0.10;;;13.70;99.90;;;;;;5052684;28;20544;-85
2022/11/09 08:29:14;;;;;;;0.10;0.10;;;13.70;99.90;;;;;;5061583;28;20195;-86
2022/11/09 08:31:40;;;;;;;0.10;0.10;;;13.70;99.90;;;;;;5070595;28;20196;-85
2022/11/09 08:34:09;;;;;;;0.10;0.10;;;13.80;99.90;;;;;;5070130;28;20221;-86
2022/11/09 08:36:35;;;;;;;0.10;0.10;;;13.80;99.90;;;;;;5066301;28;20197;-85
2022/11/09 08:39:00;;;;;;;0.10;0.10;;;13.80;99.90;;;;;;5084350;28;20677;-85
2022/11/09 08:41:27;;;;;;;0.10;0.10;;;13.80;99.90;;;;;;5065674;28;20590;-86
2022/11/09 08:43:53;;;;;;;0.10;0.10;;;14.00;99.90;;;;;;5066406;28;20224;-85
2022/11/09 08:46:18;;;;;;;0.10;0.10;;;14.30;99.90;;;;;;5064852;28;20171;-85
2022/11/09 08:48:44;;;;;;;0.10;0.10;;;14.80;99.90;;;;;;5067260;28;20198;-85
2022/11/09 08:51:09;;;;;;;0.10;0.10;;;15.00;99.90;;;;;;5063224;28;20175;-85
2022/11/09 08:53:35;;;;;;;0.10;0.10;;;15.10;99.90;;;;;;5066057;28;20185;-85
2022/11/09 08:56:00;;;;;;;0.10;0.10;;;15.10;99.90;;;;;;5067003;28;20183;-86
2022/11/09 08:58:26;;;;;;;0.10;0.10;;;15.30;99.90;;;;;;5071238;28;20207;-85
2022/11/09 09:00:52;;;;;;;0.10;0.10;;;15.40;99.90;;;;;;5056833;28;20226;-85
2022/11/09 09:03:17;;;;;;;0.10;0.10;;;15.50;99.90;;;;;;5063798;28;20177;-85
2022/11/09 09:05:43;;;;;;;0.07;0.07;;;15.60;99.90;;;;;;5066871;28;20203;-85
2022/11/09 09:08:10;;;;;;;0.10;0.10;;;15.60;99.90;;;;;;5086830;28;20180;-85
2022/11/09 09:10:36;;;;;;;0.10;0.10;;;15.60;99.90;;;;;;5062336;28;20176;-86
2022/11/09 09:13:02;;;;;;;0.10;0.10;;;15.70;99.90;;;;;;5084863;28;20184;-86
2022/11/09 09:15:29;;;;;;;0.10;0.10;;;15.80;99.90;;;;;;5054719;28;20270;-86
2022/11/09 09:17:54;;;;;;;0.10;0.10;;;15.70;99.90;;;;;;5065429;28;20200;-86
2022/11/09 09:20:20;;;;;;;0.10;0.10;;;15.70;99.90;;;;;;5064879;28;20197;-86
2022/11/09 09:22:45;;;;;;;0.10;0.10;;;15.70;99.90;;;;;;5065184;28;20229;-86
2022/11/09 09:25:11;;;;;;;0.10;0.10;;;15.80;99.90;;;;;;5063964;28;20181;-85
2022/11/09 09:27:37;;;;;;;0.10;0.10;;;15.90;99.90;;;;;;5065048;28;20263;-86
2022/11/09 09:30:04;;;;;;;0.10;0.10;;;16.00;99.90;;;;;;5063582;28;20214;-85
2022/11/09 09:32:29;;;;;;;0.10;0.10;;;16.00;99.90;;;;;;5064691;28;20186;-85
2022/11/09 09:34:55;;;;;;;0.10;0.10;;;16.00;99.90;;;;;;5066716;28;20273;-85
2022/11/09 09:37:20;;;;;;;0.10;0.10;;;15.90;99.90;;;;;;5064541;28;20569;-85
2022/11/09 09:39:46;;;;;;;0.10;0.10;;;15.80;99.90;;;;;;5065792;28;20213;-85
2022/11/09 09:42:36;;;;;;;0.10;0.10;;;15.70;99.90;;;;;;5070454;28;20186;-85
2022/11/09 09:45:07;;;;;;;0.10;0.10;;;15.70;99.90;;;;;;5053627;28;20698;-85
2022/11/09 09:47:45;;;;;;;0.10;0.10;;;15.70;99.90;;;;;;5054510;28;20176;-85
2022/11/09 09:50:45;;;;;;;0.10;0.10;;;15.80;99.90;;;;;;5058298;28;20685;-85
2022/11/09 09:53:34;;;;;;;0.10;0.10;;;15.70;99.90;;;;;;5031811;28;20204;-85
2022/11/09 09:56:09;;;;;;;0.10;0.10;;;15.80;99.90;;;;;;5063369;28;20187;-85
2022/11/09 09:58:40;;;;;;;0.10;0.10;;;15.90;99.90;;;;;;5067480;28;20245;-85
2022/11/09 10:01:14;;;;;;;0.10;0.10;;;16.00;99.90;;;;;;5065295;28;20250;-85
2022/11/09 10:03:39;;;;;;;0.10;0.10;;;16.10;99.90;;;;;;5050956;28;20613;-86
2022/11/09 10:06:23;;;;;;;0.10;0.10;;;16.10;99.90;;;;;;5062778;28;20178;-86
2022/11/09 10:09:17;;;;;;;0.10;0.10;;;16.10;99.90;;;;;;5055183;28;20267;-85
2022/11/09 10:12:20;;;;;;;0.10;0.10;;;16.10;99.90;;;;;;5054017;28;20195;-85
2022/11/09 10:15:12;;;;;;;0.10;0.10;;;16.20;99.90;;;;;;5055945;28;20184;-85
2022/11/09 10:17:41;;;;;;;0.10;0.10;;;16.30;99.90;;;;;;5056494;28;20197;-85
2022/11/09 10:20:35;;;;;;;0.10;0.10;;;16.40;99.90;;;;;;5064195;28;20242;-85
2022/11/09 10:23:26;;;;;;;0.10;0.10;;;16.30;99.90;;;;;;5050727;28;20588;-85
2022/11/09 10:26:02;;;;;;;0.10;0.10;;;16.50;99.90;;;;;;5059938;28;20256;-86
2022/11/09 10:28:29;;;;;;;0.10;0.10;;;16.60;99.90;;;;;;5061246;28;20624;-85
2022/11/09 10:30:57;;;;;;;0.10;0.10;;;16.70;99.90;;;;;;5077328;28;20178;-85
2022/11/09 10:33:23;;;;;;;0.10;0.10;;;16.80;99.90;;;;;;5065359;28;20204;-85
2022/11/09 10:36:20;;;;;;;0.10;0.10;;;16.90;99.90;;;;;;5064091;28;20216;-86
2022/11/09 10:38:50;;;;;;;0.10;0.10;;;16.90;99.90;;;;;;5064139;28;20234;-85
2022/11/09 10:41:37;;;;;;;0.10;0.10;;;16.90;99.90;;;;;;5062544;28;20185;-85
2022/11/09 10:44:03;;;;;;;0.10;0.10;;;17.00;99.90;;;;;;5078807;28;20260;-85
2022/11/09 10:46:28;;;;;;;0.10;0.10;;;17.20;99.90;;;;;;5064534;28;20248;-86
2022/11/09 10:48:54;;;;;;;0.10;0.10;;;17.60;99.90;;;;;;5063556;28;20192;-85
2022/11/09 10:51:41;;;;;;;0.10;0.10;;;17.60;99.90;;;;;;5062332;28;20228;-85
2022/11/09 10:54:17;;;;;;;0.10;0.10;;;17.80;99.90;;;;;;5063404;28;20165;-85
2022/11/09 10:56:45;;;;;;;0.10;0.10;;;17.80;99.90;;;;;;5052583;28;20685;-85
2022/11/09 10:59:48;;;;;;;0.10;0.10;;;17.70;99.90;;;;;;5063328;28;20201;-85
2022/11/09 11:02:25;;;;;;;0.10;0.10;;;17.50;99.90;;;;;;5009280;28;20179;-85
2022/11/09 11:05:17;;;;;;;0.10;0.10;;;17.40;99.90;;;;;;5055049;28;20655;-87
2022/11/09 11:07:44;;;;;;;0.10;0.10;;;17.40;99.90;;;;;;5062813;28;20188;-85
2022/11/09 11:10:15;;;;;;;0.10;0.10;;;17.20;99.90;;;;;;5062965;28;20200;-85
2022/11/09 11:13:04;;;;;;;0.10;0.10;;;17.10;99.90;;;;;;5063367;28;20219;-85
2022/11/09 11:15:39;;;;;;;0.10;0.10;;;17.00;99.90;;;;;;5047639;28;20196;-85
2022/11/09 11:18:18;;;;;;;0.10;0.10;;;17.00;99.90;;;;;;5065081;28;20279;-85
2022/11/09 11:20:44;;;;;;;0.10;0.10;;;17.20;99.90;;;;;;5062996;28;20176;-85
2022/11/09 11:23:24;;;;;;;0.10;0.10;;;17.00;99.90;;;;;;5062454;28;20543;-86
2022/11/09 11:25:52;;;;;;;0.10;0.10;;;17.10;99.90;;;;;;5058972;28;20653;-86
2022/11/09 11:28:51;;;;;;;0.10;0.10;;;17.20;99.90;;;;;;5061326;28;20176;-86
2022/11/09 11:31:18;;;;;;;0.10;0.10;;;17.30;99.90;;;;;;5068735;28;20268;-85
2022/11/09 11:33:44;;;;;;;0.10;0.10;;;17.20;99.90;;;;;;5064975;28;20177;-86
2022/11/09 11:36:36;;;;;;;0.10;0.10;;;17.20;99.90;;;;;;5062415;28;20362;-86
2022/11/09 11:39:02;;;;;;;0.10;0.10;;;17.30;99.90;;;;;;5062184;28;20266;-86
2022/11/09 11:41:58;;;;;;;0.10;0.10;;;17.40;99.90;;;;;;5060003;28;20174;-86
2022/11/09 11:44:32;;;;;;;0.10;0.10;;;17.20;99.90;;;;;;5065438;28;20187;-86
2022/11/09 11:47:11;;;;;;;0.10;0.10;;;17.20;99.90;;;;;;5061071;28;20703;-86
2022/11/09 11:49:43;;;;;;;0.10;0.10;;;17.10;99.90;;;;;;5055685;28;20290;-86
2022/11/09 11:52:17;;;;;;;0.10;0.10;;;17.20;99.90;;;;;;5066314;28;20180;-85
2022/11/09 11:55:21;;;;;;;0.10;0.10;;;17.30;99.90;;;;;;5059564;28;20711;-86
2022/11/09 11:58:02;;;;;;;0.10;0.10;;;17.40;99.90;;;;;;5055526;28;20575;-85
2022/11/09 12:00:32;;;;;;;0.10;0.10;;;17.30;99.90;;;;;;5083076;28;20243;-86
2022/11/09 12:03:20;;;;;;;0.10;0.10;;;17.10;99.90;;;;;;5062122;28;20198;-86
2022/11/09 12:06:00;;;;;;;0.10;0.10;;;17.00;99.90;;;;;;5057023;28;20586;-86
2022/11/09 12:08:48;;;;;;;0.10;0.10;;;16.90;99.90;;;;;;5067491;28;20205;-86
2022/11/09 12:11:46;;;;;;;0.10;0.10;;;16.80;99.90;;;;;;5057295;28;20261;-86
2022/11/09 12:14:29;;;;;;;0.10;0.10;;;16.90;99.90;;;;;;5062533;28;20174;-86
2022/11/09 12:17:13;;;;;;;0.10;0.10;;;17.00;99.90;;;;;;5062978;28;20197;-86
2022/11/09 12:20:06;;;;;;;0.10;0.10;;;17.00;99.90;;;;;;5050946;28;20227;-86
2022/11/09 12:23:01;;;;;;;0.10;0.10;;;16.80;99.90;;;;;;5059443;28;20184;-86
2022/11/09 12:25:52;;;;;;;0.10;0.10;;;16.60;99.90;;;;;;5036850;28;20190;-85
2022/11/09 12:28:26;;;;;;;0.10;0.10;;;16.50;99.90;;;;;;5060582;28;20327;-86
2022/11/09 12:31:16;;;;;;;0.10;0.10;;;16.50;99.90;;;;;;5073869;28;20213;-85
2022/11/09 12:34:04;;;;;;;0.10;0.10;;;16.50;99.90;;;;;;5056976;28;20269;-86
2022/11/09 12:36:39;;;;;;;0.10;0.10;;;16.50;99.90;;;;;;5065466;28;20190;-86
2022/11/09 12:39:06;;;;;;;0.10;0.10;;;16.50;99.90;;;;;;5065637;28;20246;-86
2022/11/09 12:41:36;;;;;;;0.10;0.10;;;16.40;99.90;;;;;;5058909;28;20174;-85
2022/11/09 12:44:27;;;;;;;0.10;0.10;;;16.40;99.90;;;;;;5065194;28;20184;-86
2022/11/09 12:46:59;;;;;;;0.10;0.10;;;16.40;99.90;;;;;;5064672;28;20177;-85
2022/11/09 12:49:41;;;;;;;0.10;0.10;;;16.40;99.90;;;;;;5059734;28;20228;-86
2022/11/09 12:52:12;;;;;;;0.10;0.10;;;16.30;99.90;;;;;;5082465;28;20180;-85
2022/11/09 12:54:44;;;;;;;0.10;0.10;;;16.20;99.90;;;;;;5055722;28;20266;-86
2022/11/09 12:57:15;;;;;;;0.10;0.10;;;16.10;99.90;;;;;;5080463;28;20224;-86
2022/11/09 12:59:48;;;;;;;0.10;0.10;;;16.10;99.90;;;;;;5062280;28;20200;-86
2022/11/09 13:02:36;;;;;;;0.10;0.10;;;16.10;99.90;;;;;;5060989;28;20197;-86
2022/11/09 13:05:24;;;;;;;0.10;0.10;;;16.00;99.90;;;;;;5060089;28;20661;-86
2022/11/09 13:07:53;;;;;;;0.10;0.10;;;16.00;99.90;;;;;;5040039;28;20588;-86